Time;durP1;ratioP1;P1;durP2;ratioP2;P2;SDS_P1;SDS_P2;PMS_P1;PMS_P2;Temp;Humidity;BMP_temperature;BMP_pressure;BME280_temperature;BME280_humidity;BME280_pressure;Samples;Min_cycle;Max_cycle;Signal;HPM_P1;HPM_P2
2023/09/23 00:01:32;;;;;;;20.23;8.80;;;;;;;;;;5086775;28;20055;-69
2023/09/23 00:03:58;;;;;;;17.15;7.68;;;;;;;;;;5088260;28;20028;-69
2023/09/23 00:06:24;;;;;;;15.32;7.80;;;;;;;;;;5088334;28;20046;-69
2023/09/23 00:08:50;;;;;;;19.45;7.85;;;;;;;;;;5088355;28;20490;-70
2023/09/23 00:11:16;;;;;;;17.50;8.10;;;;;;;;;;5087752;28;20139;-68
2023/09/23 00:13:43;;;;;;;21.30;8.40;;;;;;;;;;5088561;28;20397;-69
2023/09/23 00:16:14;;;;;;;20.98;7.75;;;;;;;;;;5088081;28;20036;-68
2023/09/23 00:18:40;;;;;;;15.27;6.97;;;;;;;;;;5088478;28;20047;-70
2023/09/23 00:21:08;;;;;;;18.55;7.07;;;;;;;;;;5087904;28;20382;-69
2023/09/23 00:23:34;;;;;;;15.27;7.03;;;;;;;;;;5088017;28;20048;-69
2023/09/23 00:26:01;;;;;;;14.07;6.50;;;;;;;;;;5088111;28;20039;-69
2023/09/23 00:28:30;;;;;;;22.20;6.75;;;;;;;;;;5087993;28;20034;-69
2023/09/23 00:31:11;;;;;;;14.65;7.28;;;;;;;;;;5087552;28;20051;-69
2023/09/23 00:33:37;;;;;;;23.83;7.88;;;;;;;;;;5086769;28;20024;-69
2023/09/23 00:36:10;;;;;;;20.00;7.68;;;;;;;;;;5087923;28;20429;-69
2023/09/23 00:38:37;;;;;;;15.88;7.53;;;;;;;;;;5086899;28;20612;-70
2023/09/23 00:41:04;;;;;;;12.75;7.43;;;;;;;;;;5087611;28;20033;-69
2023/09/23 00:43:32;;;;;;;15.68;7.70;;;;;;;;;;5086490;28;20102;-69
2023/09/23 00:45:59;;;;;;;20.52;8.00;;;;;;;;;;5086720;28;20319;-68
2023/09/23 00:48:25;;;;;;;17.08;7.72;;;;;;;;;;5089271;28;20028;-69
2023/09/23 00:50:53;;;;;;;17.48;7.32;;;;;;;;;;5090107;28;20035;-69
2023/09/23 00:53:21;;;;;;;17.88;7.43;;;;;;;;;;5091942;28;20036;-69
2023/09/23 00:55:57;;;;;;;15.93;8.18;;;;;;;;;;5090498;28;20055;-68
2023/09/23 00:58:26;;;;;;;18.52;7.25;;;;;;;;;;5090717;28;20460;-69
2023/09/23 01:00:54;;;;;;;16.10;6.88;;;;;;;;;;5090466;28;20099;-69
2023/09/23 01:03:21;;;;;;;20.02;7.82;;;;;;;;;;5091742;28;20040;-69
2023/09/23 01:05:49;;;;;;;16.42;7.50;;;;;;;;;;5091572;28;20021;-69
2023/09/23 01:08:22;;;;;;;16.67;7.90;;;;;;;;;;5093461;28;20517;-70
2023/09/23 01:10:50;;;;;;;;;;;;;;;;;;5077423;28;20056;-67
2023/09/23 01:13:24;;;;;;;20.77;7.68;;;;;;;;;;5077170;28;19908;-70
2023/09/23 01:15:51;;;;;;;13.98;8.00;;;;;;;;;;5078428;28;20028;-69
2023/09/23 01:18:17;;;;;;;14.60;7.40;;;;;;;;;;5079008;28;20020;-69
2023/09/23 01:20:51;;;;;;;18.92;7.15;;;;;;;;;;5100619;28;20065;-69
2023/09/23 01:23:17;;;;;;;20.27;7.82;;;;;;;;;;5077327;28;20032;-68
2023/09/23 01:25:43;;;;;;;17.65;8.38;;;;;;;;;;5093526;28;20497;-67
2023/09/23 01:28:11;;;;;;;19.95;7.65;;;;;;;;;;5076725;28;20040;-70
2023/09/23 01:30:39;;;;;;;18.00;8.00;;;;;;;;;;5077778;28;20469;-69
2023/09/23 01:33:07;;;;;;;14.23;7.93;;;;;;;;;;5076769;28;20032;-69
2023/09/23 01:35:33;;;;;;;15.35;7.97;;;;;;;;;;5093236;28;20033;-72
2023/09/23 01:38:02;;;;;;;18.27;8.75;;;;;;;;;;5088617;28;20067;-71
2023/09/23 01:40:30;;;;;;;20.35;9.32;;;;;;;;;;5098236;28;20100;-70
2023/09/23 01:42:57;;;;;;;18.88;8.25;;;;;;;;;;5098069;28;20039;-68
2023/09/23 01:45:26;;;;;;;24.30;8.98;;;;;;;;;;5098221;28;20077;-69
2023/09/23 01:47:56;;;;;;;20.98;8.65;;;;;;;;;;5097706;28;20562;-70
2023/09/23 01:50:23;;;;;;;22.23;9.55;;;;;;;;;;5098116;28;20039;-70
2023/09/23 01:52:49;;;;;;;23.85;10.20;;;;;;;;;;5097773;28;20012;-70
2023/09/23 01:55:17;;;;;;;17.42;7.93;;;;;;;;;;5096607;28;20039;-68
2023/09/23 01:57:43;;;;;;;18.58;9.23;;;;;;;;;;5096684;28;20027;-69
2023/09/23 02:00:17;;;;;;;14.60;8.45;;;;;;;;;;5095215;28;20035;-70
2023/09/23 02:02:43;;;;;;;18.92;8.40;;;;;;;;;;5096695;28;20039;-69
2023/09/23 02:05:09;;;;;;;20.42;8.85;;;;;;;;;;5096641;28;20027;-69
2023/09/23 02:07:35;;;;;;;16.52;8.40;;;;;;;;;;5095844;28;20035;-69
2023/09/23 02:10:00;;;;;;;19.50;8.65;;;;;;;;;;5095959;28;20470;-69
2023/09/23 02:12:26;;;;;;;19.63;9.15;;;;;;;;;;5097716;28;20027;-69
2023/09/23 02:14:53;;;;;;;17.73;8.35;;;;;;;;;;5096586;28;20023;-68
2023/09/23 02:17:20;;;;;;;20.20;9.68;;;;;;;;;;5093271;28;20032;-67
2023/09/23 02:19:47;;;;;;;25.20;10.73;;;;;;;;;;5073932;28;20045;-67
2023/09/23 02:22:13;;;;;;;20.30;10.57;;;;;;;;;;5094602;28;20038;-68
2023/09/23 02:24:40;;;;;;;25.90;10.55;;;;;;;;;;5093316;28;20024;-68
2023/09/23 02:27:06;;;;;;;23.13;11.00;;;;;;;;;;5093421;28;20040;-68
2023/09/23 02:29:33;;;;;;;22.02;9.93;;;;;;;;;;5093179;28;20024;-69
2023/09/23 02:32:00;;;;;;;20.45;9.20;;;;;;;;;;5092668;28;20158;-69
2023/09/23 02:34:28;;;;;;;19.95;8.75;;;;;;;;;;5094367;28;20020;-68
2023/09/23 02:36:54;;;;;;;24.45;10.00;;;;;;;;;;5089893;28;20028;-69
2023/09/23 02:39:20;;;;;;;23.48;10.02;;;;;;;;;;5074154;28;20100;-69
2023/09/23 02:41:47;;;;;;;18.42;9.60;;;;;;;;;;5072634;28;20028;-69
2023/09/23 02:44:14;;;;;;;23.27;10.48;;;;;;;;;;5072876;28;20024;-69
2023/09/23 02:46:41;;;;;;;23.38;9.88;;;;;;;;;;5074027;28;20067;-68
2023/09/23 02:49:09;;;;;;;23.38;12.13;;;;;;;;;;5073929;28;20027;-69
2023/09/23 02:51:36;;;;;;;20.60;10.65;;;;;;;;;;5072589;28;20040;-68
2023/09/23 02:54:04;;;;;;;22.23;9.85;;;;;;;;;;5085932;28;20474;-69
2023/09/23 02:56:30;;;;;;;27.70;11.82;;;;;;;;;;5092522;28;20024;-69
2023/09/23 02:58:57;;;;;;;22.70;10.38;;;;;;;;;;5093956;28;20032;-69
2023/09/23 03:01:25;;;;;;;17.73;10.90;;;;;;;;;;5093886;28;20122;-69
2023/09/23 03:03:52;;;;;;;36.63;12.27;;;;;;;;;;5092638;28;20020;-69
2023/09/23 03:06:18;;;;;;;22.80;10.00;;;;;;;;;;5088977;28;20122;-70
2023/09/23 03:08:47;;;;;;;26.13;10.98;;;;;;;;;;5108031;28;20019;-69
2023/09/23 03:11:18;;;;;;;22.20;9.07;;;;;;;;;;5090134;28;20032;-68
2023/09/23 03:13:44;;;;;;;23.20;8.52;;;;;;;;;;5091880;28;20477;-68
2023/09/23 03:16:13;;;;;;;18.50;7.65;;;;;;;;;;5108837;28;20023;-68
2023/09/23 03:18:54;;;;;;;29.30;9.07;;;;;;;;;;5071416;28;20128;-69
2023/09/23 03:21:20;;;;;;;22.75;8.65;;;;;;;;;;5087976;28;20043;-68
2023/09/23 03:23:46;;;;;;;20.88;7.25;;;;;;;;;;5071206;28;20028;-69
2023/09/23 03:26:14;;;;;;;27.02;9.60;;;;;;;;;;5076117;28;20031;-69
2023/09/23 03:28:40;;;;;;;23.75;9.07;;;;;;;;;;5108558;28;20054;-69
2023/09/23 03:31:08;;;;;;;20.90;6.82;;;;;;;;;;5090933;28;20036;-68
2023/09/23 03:33:37;;;;;;;16.15;7.68;;;;;;;;;;5103448;28;20024;-70
2023/09/23 03:36:05;;;;;;;15.57;7.30;;;;;;;;;;5108249;28;20071;-69
2023/09/23 03:38:33;;;;;;;23.98;7.72;;;;;;;;;;5091614;28;20047;-69
2023/09/23 03:41:02;;;;;;;15.27;6.55;;;;;;;;;;5091017;28;20044;-69
2023/09/23 03:43:29;;;;;;;33.92;8.98;;;;;;;;;;5091283;28;20481;-69
2023/09/23 03:45:55;;;;;;;25.10;8.82;;;;;;;;;;5091236;28;20089;-69
2023/09/23 03:48:21;;;;;;;23.67;8.07;;;;;;;;;;5092298;28;20478;-69
2023/09/23 03:50:53;;;;;;;19.75;6.97;;;;;;;;;;5090752;28;20028;-68
2023/09/23 03:53:22;;;;;;;33.30;9.07;;;;;;;;;;5090992;28;20038;-68
2023/09/23 03:55:49;;;;;;;34.85;7.90;;;;;;;;;;5090934;28;20031;-68
2023/09/23 03:58:19;;;;;;;27.65;8.18;;;;;;;;;;5087471;28;20025;-68
2023/09/23 04:00:45;;;;;;;23.17;7.60;;;;;;;;;;5070181;28;20042;-69
2023/09/23 04:03:11;;;;;;;25.48;7.57;;;;;;;;;;5090607;28;20024;-69
2023/09/23 04:05:37;;;;;;;52.97;11.63;;;;;;;;;;5092537;28;20136;-69
2023/09/23 04:08:03;;;;;;;27.25;9.15;;;;;;;;;;5092264;28;20465;-69
2023/09/23 04:10:29;;;;;;;33.22;8.88;;;;;;;;;;5091719;28;20031;-68
2023/09/23 04:12:55;;;;;;;19.95;7.97;;;;;;;;;;5091816;28;20016;-68
2023/09/23 04:15:22;;;;;;;22.50;7.82;;;;;;;;;;5092062;28;20481;-69
2023/09/23 04:17:48;;;;;;;28.35;9.57;;;;;;;;;;5091891;28;20012;-68
2023/09/23 04:20:17;;;;;;;34.33;10.23;;;;;;;;;;5091983;28;20042;-70
2023/09/23 04:22:46;;;;;;;28.42;9.68;;;;;;;;;;5091429;28;20028;-69
2023/09/23 04:25:13;;;;;;;25.20;8.18;;;;;;;;;;5092238;28;20387;-68
2023/09/23 04:27:40;;;;;;;22.90;7.45;;;;;;;;;;5091764;28;20032;-68
2023/09/23 04:30:09;;;;;;;30.77;9.38;;;;;;;;;;5092449;28;20482;-69
2023/09/23 04:32:39;;;;;;;31.60;10.05;;;;;;;;;;5088770;28;20199;-68
2023/09/23 04:35:09;;;;;;;51.03;11.35;;;;;;;;;;5092089;28;20039;-69
2023/09/23 04:37:38;;;;;;;40.65;9.82;;;;;;;;;;5091485;28;20085;-68
2023/09/23 04:40:13;;;;;;;37.95;10.13;;;;;;;;;;5091920;28;20035;-69
2023/09/23 04:42:43;;;;;;;17.88;6.63;;;;;;;;;;5091396;28;20055;-68
2023/09/23 04:45:10;;;;;;;23.58;6.82;;;;;;;;;;5091723;28;20069;-69
2023/09/23 04:47:37;;;;;;;25.88;7.80;;;;;;;;;;5091851;28;20024;-69
2023/09/23 04:50:05;;;;;;;22.63;6.85;;;;;;;;;;5091646;28;20111;-68
2023/09/23 04:52:31;;;;;;;29.85;7.22;;;;;;;;;;5087667;28;20098;-69
2023/09/23 04:54:57;;;;;;;20.10;6.47;;;;;;;;;;5091358;28;20076;-69
2023/09/23 04:57:23;;;;;;;22.85;6.47;;;;;;;;;;5091838;28;20375;-74
2023/09/23 04:59:49;;;;;;;24.95;6.93;;;;;;;;;;5088110;28;20028;-68
2023/09/23 05:02:17;;;;;;;17.17;6.53;;;;;;;;;;5091561;28;20016;-68
2023/09/23 05:04:46;;;;;;;14.38;5.97;;;;;;;;;;5091725;28;20055;-69
2023/09/23 05:07:12;;;;;;;18.52;6.07;;;;;;;;;;5088271;28;20359;-69
2023/09/23 05:09:40;;;;;;;17.85;6.60;;;;;;;;;;5091309;28;20051;-68
2023/09/23 05:12:08;;;;;;;27.33;6.88;;;;;;;;;;5091198;28;20038;-69
2023/09/23 05:14:34;;;;;;;21.25;6.70;;;;;;;;;;5091741;28;20024;-68
2023/09/23 05:17:04;;;;;;;47.30;8.00;;;;;;;;;;5090239;28;20440;-69
2023/09/23 05:19:31;;;;;;;20.80;6.38;;;;;;;;;;5091443;28;20122;-68
2023/09/23 05:21:57;;;;;;;31.67;6.68;;;;;;;;;;5090682;28;20069;-69
2023/09/23 05:24:26;;;;;;;28.27;6.90;;;;;;;;;;5090801;28;20032;-69
2023/09/23 05:26:54;;;;;;;17.35;6.10;;;;;;;;;;5091211;28;20016;-70
2023/09/23 05:29:21;;;;;;;21.48;5.80;;;;;;;;;;5091494;28;20636;-68
2023/09/23 05:31:47;;;;;;;32.40;7.68;;;;;;;;;;5091269;28;20020;-68
2023/09/23 05:34:15;;;;;;;28.02;6.90;;;;;;;;;;5089899;28;20114;-68
2023/09/23 05:36:41;;;;;;;32.60;7.28;;;;;;;;;;5090537;28;20096;-70
2023/09/23 05:39:08;;;;;;;18.98;5.72;;;;;;;;;;5091012;28;20039;-69
2023/09/23 05:41:33;;;;;;;22.00;5.63;;;;;;;;;;5091240;28;20043;-68
2023/09/23 05:43:59;;;;;;;23.98;6.75;;;;;;;;;;5091014;28;20489;-68
2023/09/23 05:46:28;;;;;;;35.03;6.70;;;;;;;;;;5091300;28;20024;-68
2023/09/23 05:48:54;;;;;;;34.90;6.88;;;;;;;;;;5090059;28;20036;-69
2023/09/23 05:51:19;;;;;;;23.42;6.13;;;;;;;;;;5087233;28;20019;-67
2023/09/23 05:53:45;;;;;;;20.67;6.68;;;;;;;;;;5090874;28;20501;-71
2023/09/23 05:56:11;;;;;;;26.25;6.25;;;;;;;;;;5094703;28;20551;-72
2023/09/23 05:58:37;;;;;;;24.83;7.32;;;;;;;;;;5095180;28;20028;-71
2023/09/23 06:01:03;;;;;;;23.88;5.93;;;;;;;;;;5095226;28;20133;-71
2023/09/23 06:03:29;;;;;;;26.83;6.22;;;;;;;;;;5095591;28;20035;-71
2023/09/23 06:05:55;;;;;;;23.83;7.28;;;;;;;;;;5096002;28;20024;-71
2023/09/23 06:08:21;;;;;;;26.20;7.32;;;;;;;;;;5094629;28;20528;-71
2023/09/23 06:10:47;;;;;;;24.20;7.72;;;;;;;;;;5094330;28;20028;-70
2023/09/23 06:13:13;;;;;;;29.33;9.38;;;;;;;;;;5092655;28;20398;-70
2023/09/23 06:15:39;;;;;;;16.63;6.68;;;;;;;;;;5094749;28;20028;-75
2023/09/23 06:18:09;;;;;;;25.13;7.50;;;;;;;;;;5094274;28;20039;-71
2023/09/23 06:20:35;;;;;;;20.08;7.07;;;;;;;;;;5094166;28;20024;-73
2023/09/23 06:23:01;;;;;;;16.73;6.82;;;;;;;;;;5093690;28;20024;-70
2023/09/23 06:25:26;;;;;;;22.88;8.23;;;;;;;;;;5094299;28;20043;-71
2023/09/23 06:27:52;;;;;;;26.08;8.77;;;;;;;;;;5094712;28;20044;-73
2023/09/23 06:30:18;;;;;;;23.15;8.05;;;;;;;;;;5094035;28;20118;-73
2023/09/23 06:32:44;;;;;;;24.65;8.98;;;;;;;;;;5093827;28;20660;-73
2023/09/23 06:35:11;;;;;;;21.88;9.32;;;;;;;;;;5093821;28;20165;-70
2023/09/23 06:37:37;;;;;;;20.48;7.95;;;;;;;;;;5094873;28;20366;-70
2023/09/23 06:40:04;;;;;;;17.98;7.85;;;;;;;;;;5094949;28;20489;-72
2023/09/23 06:42:29;;;;;;;22.23;8.07;;;;;;;;;;5095248;28;20035;-72
2023/09/23 06:44:56;;;;;;;23.42;11.40;;;;;;;;;;5094464;28;20036;-72
2023/09/23 06:47:21;;;;;;;19.35;8.95;;;;;;;;;;5086361;28;20031;-71
2023/09/23 06:49:47;;;;;;;25.90;10.43;;;;;;;;;;5094460;28;20036;-72
2023/09/23 06:52:13;;;;;;;24.52;9.80;;;;;;;;;;5094784;28;20024;-71
2023/09/23 06:54:39;;;;;;;23.48;8.68;;;;;;;;;;5094414;28;20024;-73
2023/09/23 06:57:05;;;;;;;22.83;8.25;;;;;;;;;;5095237;28;20486;-72
2023/09/23 06:59:32;;;;;;;22.30;7.72;;;;;;;;;;5093885;28;20471;-72
2023/09/23 07:01:58;;;;;;;19.20;7.88;;;;;;;;;;5094480;28;20031;-73
2023/09/23 07:04:24;;;;;;;33.25;8.52;;;;;;;;;;5084054;28;20032;-71
2023/09/23 07:06:50;;;;;;;18.67;6.57;;;;;;;;;;5093391;28;20042;-73
2023/09/23 07:09:16;;;;;;;25.27;8.18;;;;;;;;;;5093319;28;20105;-72
2023/09/23 07:11:42;;;;;;;22.50;7.45;;;;;;;;;;5088720;28;20462;-72
2023/09/23 07:14:08;;;;;;;23.70;6.75;;;;;;;;;;5090951;28;20062;-72
2023/09/23 07:16:33;;;;;;;21.67;7.88;;;;;;;;;;5093525;28;20012;-72
2023/09/23 07:19:03;;;;;;;22.23;7.57;;;;;;;;;;5093320;28;20076;-72
2023/09/23 07:21:29;;;;;;;20.42;7.78;;;;;;;;;;5085314;28;20047;-74
2023/09/23 07:23:57;;;;;;;16.80;7.38;;;;;;;;;;5092832;28;20382;-73
2023/09/23 07:26:22;;;;;;;26.95;9.27;;;;;;;;;;5092893;28;20032;-73
2023/09/23 07:28:52;;;;;;;20.52;8.45;;;;;;;;;;5092807;28;20165;-72
2023/09/23 07:31:18;;;;;;;22.33;7.97;;;;;;;;;;5093027;28;20023;-73
2023/09/23 07:33:44;;;;;;;24.92;7.72;;;;;;;;;;5093019;28;20040;-71
2023/09/23 07:36:12;;;;;;;28.02;8.60;;;;;;;;;;5092780;28;20019;-72
2023/09/23 07:38:41;;;;;;;21.02;8.02;;;;;;;;;;5093089;28;20056;-71
2023/09/23 07:41:07;;;;;;;27.90;8.18;;;;;;;;;;5092600;28;20113;-73
2023/09/23 07:43:33;;;;;;;20.70;7.55;;;;;;;;;;5092737;28;20039;-73
2023/09/23 07:45:59;;;;;;;26.52;7.97;;;;;;;;;;5092837;28;20094;-73
2023/09/23 07:48:25;;;;;;;31.52;8.40;;;;;;;;;;5091886;28;20046;-73
2023/09/23 07:50:53;;;;;;;19.55;7.65;;;;;;;;;;5093011;28;20028;-73
2023/09/23 07:53:19;;;;;;;20.95;8.73;;;;;;;;;;5092558;28;20020;-73
2023/09/23 07:55:45;;;;;;;37.58;10.20;;;;;;;;;;5098602;28;20089;-71
2023/09/23 07:58:11;;;;;;;20.92;8.00;;;;;;;;;;5092175;28;20103;-73
2023/09/23 08:00:38;;;;;;;24.77;8.63;;;;;;;;;;5091872;28;20030;-73
2023/09/23 08:03:04;;;;;;;19.95;7.57;;;;;;;;;;5091880;28;22296;-71
2023/09/23 08:05:29;;;;;;;19.48;7.65;;;;;;;;;;5092269;28;20062;-71
2023/09/23 08:07:56;;;;;;;20.83;7.70;;;;;;;;;;5092234;28;20082;-72
2023/09/23 08:10:21;;;;;;;16.05;7.80;;;;;;;;;;5092007;28;20035;-72
2023/09/23 08:12:48;;;;;;;25.75;8.50;;;;;;;;;;5090403;28;20032;-70
2023/09/23 08:15:14;;;;;;;16.45;7.20;;;;;;;;;;5092343;28;20028;-71
2023/09/23 08:17:40;;;;;;;21.90;8.60;;;;;;;;;;5091187;28;20051;-71
2023/09/23 08:20:17;;;;;;;26.58;8.50;;;;;;;;;;5092260;28;20020;-72
2023/09/23 08:22:45;;;;;;;28.50;8.43;;;;;;;;;;5090605;28;20032;-71
2023/09/23 08:25:12;;;;;;;18.42;7.57;;;;;;;;;;5091587;28;20077;-72
2023/09/23 08:27:40;;;;;;;23.98;7.72;;;;;;;;;;5091591;28;20028;-72
2023/09/23 08:30:07;;;;;;;26.95;7.32;;;;;;;;;;5090738;28;20032;-72
2023/09/23 08:32:33;;;;;;;20.77;6.53;;;;;;;;;;5090894;28;20038;-72
2023/09/23 08:34:59;;;;;;;26.30;7.30;;;;;;;;;;5089904;28;20023;-72
2023/09/23 08:37:25;;;;;;;20.38;6.10;;;;;;;;;;5101614;28;20518;-72
2023/09/23 08:39:51;;;;;;;19.90;7.00;;;;;;;;;;5102277;28;20028;-72
2023/09/23 08:42:22;;;;;;;24.95;7.13;;;;;;;;;;5098256;28;20053;-72
2023/09/23 08:44:49;;;;;;;22.02;7.07;;;;;;;;;;5090415;28;20040;-71
2023/09/23 08:47:17;;;;;;;17.23;6.35;;;;;;;;;;5089981;28;20027;-72
2023/09/23 08:49:49;;;;;;;28.77;6.43;;;;;;;;;;5090985;28;20036;-72
2023/09/23 08:52:18;;;;;;;20.42;5.85;;;;;;;;;;5089417;28;20044;-74
2023/09/23 08:54:49;;;;;;;22.92;6.50;;;;;;;;;;5090918;28;20394;-71
2023/09/23 08:57:16;;;;;;;23.27;7.03;;;;;;;;;;5090630;28;20118;-71
2023/09/23 08:59:43;;;;;;;24.23;6.53;;;;;;;;;;5090385;28;20054;-72
2023/09/23 09:02:10;;;;;;;20.85;5.72;;;;;;;;;;5091150;28;20028;-72
2023/09/23 09:04:36;;;;;;;23.42;6.78;;;;;;;;;;5090947;28;20024;-72
2023/09/23 09:07:03;;;;;;;21.15;5.70;;;;;;;;;;5090919;28;20032;-70
2023/09/23 09:09:29;;;;;;;21.35;5.50;;;;;;;;;;5090823;28;20465;-72
2023/09/23 09:11:55;;;;;;;15.25;6.18;;;;;;;;;;5090861;28;20431;-73
2023/09/23 09:14:24;;;;;;;21.45;6.80;;;;;;;;;;5087920;28;20466;-73
2023/09/23 09:16:49;;;;;;;17.63;5.93;;;;;;;;;;5090658;28;20028;-72
2023/09/23 09:19:15;;;;;;;13.73;5.32;;;;;;;;;;5098217;28;20051;-68
2023/09/23 09:21:41;;;;;;;21.80;6.28;;;;;;;;;;5089543;28;20054;-71
2023/09/23 09:24:08;;;;;;;26.77;6.20;;;;;;;;;;5090221;28;20477;-71
2023/09/23 09:26:40;;;;;;;16.98;6.18;;;;;;;;;;5091071;28;20036;-72
2023/09/23 09:29:06;;;;;;;21.15;5.75;;;;;;;;;;5093016;28;20027;-72
2023/09/23 09:31:34;;;;;;;15.80;6.05;;;;;;;;;;5094515;28;20039;-73
2023/09/23 09:34:05;;;;;;;27.77;7.10;;;;;;;;;;5094097;28;20036;-71
2023/09/23 09:36:34;;;;;;;23.35;7.35;;;;;;;;;;5094613;28;20032;-73
2023/09/23 09:39:04;;;;;;;25.27;7.57;;;;;;;;;;5095084;28;20031;-74
2023/09/23 09:41:46;;;;;;;22.60;6.15;;;;;;;;;;5093111;28;20032;-73
2023/09/23 09:44:21;;;;;;;18.25;6.05;;;;;;;;;;5093596;28;20032;-72
2023/09/23 09:46:48;;;;;;;20.40;6.15;;;;;;;;;;5094189;28;20036;-73
2023/09/23 09:49:17;;;;;;;23.55;6.80;;;;;;;;;;5091814;28;20127;-73
2023/09/23 09:51:48;;;;;;;31.45;7.85;;;;;;;;;;5094762;28;20034;-72
2023/09/23 09:54:20;;;;;;;21.92;5.90;;;;;;;;;;5095662;28;20536;-72
2023/09/23 09:56:49;;;;;;;28.57;6.23;;;;;;;;;;5094703;28;20486;-73
2023/09/23 09:59:23;;;;;;;27.55;6.30;;;;;;;;;;5093707;28;20055;-72
2023/09/23 10:01:59;;;;;;;26.63;6.50;;;;;;;;;;5093427;28;20035;-73
2023/09/23 10:04:35;;;;;;;18.38;6.82;;;;;;;;;;5092878;28;20032;-73
2023/09/23 10:07:05;;;;;;;27.85;7.68;;;;;;;;;;5091319;28;20056;-72
2023/09/23 10:09:32;;;;;;;20.67;7.25;;;;;;;;;;5092071;28;20036;-73
2023/09/23 10:11:59;;;;;;;19.80;6.63;;;;;;;;;;5093763;28;20027;-73
2023/09/23 10:14:26;;;;;;;27.58;7.15;;;;;;;;;;5093849;28;20032;-74
2023/09/23 10:17:01;;;;;;;19.30;6.93;;;;;;;;;;5094236;28;20038;-73
2023/09/23 10:19:49;;;;;;;23.58;6.80;;;;;;;;;;5094758;28;20485;-73
2023/09/23 10:22:20;;;;;;;24.60;7.35;;;;;;;;;;5092954;28;20066;-73
2023/09/23 10:25:04;;;;;;;24.63;6.85;;;;;;;;;;5093599;28;20075;-73
2023/09/23 10:27:31;;;;;;;21.95;6.57;;;;;;;;;;5094472;28;20074;-74
2023/09/23 10:29:57;;;;;;;26.35;7.00;;;;;;;;;;5094544;28;20031;-74
2023/09/23 10:32:22;;;;;;;29.65;7.40;;;;;;;;;;5093309;28;20435;-72
2023/09/23 10:34:51;;;;;;;28.98;7.13;;;;;;;;;;5094234;28;20020;-74
2023/09/23 10:37:29;;;;;;;25.05;6.80;;;;;;;;;;5093360;28;20074;-72
2023/09/23 10:40:12;;;;;;;18.40;6.03;;;;;;;;;;5086375;28;20047;-73
2023/09/23 10:42:41;;;;;;;24.25;6.72;;;;;;;;;;5093466;28;20035;-73
2023/09/23 10:45:09;;;;;;;22.05;6.93;;;;;;;;;;5094425;28;20062;-73
2023/09/23 10:47:36;;;;;;;29.77;7.13;;;;;;;;;;5092570;28;20742;-72
2023/09/23 10:50:06;;;;;;;25.60;6.75;;;;;;;;;;5094077;28;20476;-72
2023/09/23 10:52:33;;;;;;;29.13;8.73;;;;;;;;;;5093922;28;20036;-72
2023/09/23 10:54:59;;;;;;;25.55;8.48;;;;;;;;;;5093965;28;20059;-73
2023/09/23 10:57:25;;;;;;;25.23;6.70;;;;;;;;;;5092514;28;20067;-74
2023/09/23 10:59:52;;;;;;;20.27;6.45;;;;;;;;;;5093742;28;20024;-73
2023/09/23 11:02:22;;;;;;;29.52;6.95;;;;;;;;;;5094311;28;20405;-73
2023/09/23 11:04:49;;;;;;;24.88;7.25;;;;;;;;;;5093731;28;20032;-75
2023/09/23 11:07:16;;;;;;;19.45;6.60;;;;;;;;;;5093893;28;20455;-74
2023/09/23 11:09:45;;;;;;;23.38;6.45;;;;;;;;;;5092975;28;20051;-72
2023/09/23 11:12:15;;;;;;;33.80;6.63;;;;;;;;;;5092683;28;20016;-71
2023/09/23 11:14:45;;;;;;;33.28;7.13;;;;;;;;;;5092384;28;20478;-73
2023/09/23 11:17:27;;;;;;;17.73;5.32;;;;;;;;;;5094524;28;20433;-72
2023/09/23 11:19:58;;;;;;;22.00;6.25;;;;;;;;;;5092675;28;20451;-73
2023/09/23 11:22:30;;;;;;;19.83;5.93;;;;;;;;;;5093683;28;20036;-73
2023/09/23 11:24:58;;;;;;;20.77;6.38;;;;;;;;;;5093919;28;20085;-74
2023/09/23 11:27:25;;;;;;;28.25;5.78;;;;;;;;;;5093762;28;20023;-73
2023/09/23 11:29:52;;;;;;;16.73;5.85;;;;;;;;;;5093259;28;20521;-73
2023/09/23 11:32:26;;;;;;;25.52;6.38;;;;;;;;;;5093089;28;20036;-73
2023/09/23 11:34:53;;;;;;;22.63;6.03;;;;;;;;;;5092732;28;20036;-73
2023/09/23 11:37:23;;;;;;;18.05;6.05;;;;;;;;;;5093098;28;20024;-73
2023/09/23 11:39:49;;;;;;;26.20;6.85;;;;;;;;;;5092898;28;20062;-75
2023/09/23 11:42:15;;;;;;;27.05;6.65;;;;;;;;;;5093054;28;20024;-73
2023/09/23 11:44:41;;;;;;;20.67;6.13;;;;;;;;;;5086104;28;20060;-73
2023/09/23 11:47:07;;;;;;;27.70;6.43;;;;;;;;;;5085816;28;20070;-73
2023/09/23 11:49:33;;;;;;;30.25;6.72;;;;;;;;;;5092498;28;20032;-74
2023/09/23 11:51:59;;;;;;;30.52;5.88;;;;;;;;;;5092091;28;20061;-73
2023/09/23 11:54:25;;;;;;;24.63;6.20;;;;;;;;;;5091964;28;20039;-74
2023/09/23 11:56:51;;;;;;;23.98;6.47;;;;;;;;;;5092822;28;20024;-74
2023/09/23 11:59:20;;;;;;;25.65;6.05;;;;;;;;;;5092522;28;20039;-74
2023/09/23 12:01:48;;;;;;;20.73;5.60;;;;;;;;;;5092377;28;20095;-75
2023/09/23 12:04:14;;;;;;;17.02;5.05;;;;;;;;;;5090835;28;20048;-72
2023/09/23 12:06:40;;;;;;;17.88;5.03;;;;;;;;;;5092227;28;20020;-75
2023/09/23 12:09:09;;;;;;;25.73;6.35;;;;;;;;;;5092948;28;20393;-74
2023/09/23 12:11:36;;;;;;;22.27;5.20;;;;;;;;;;5092715;28;20039;-72
2023/09/23 12:14:02;;;;;;;18.90;5.57;;;;;;;;;;5092382;28;20084;-75
2023/09/23 12:16:28;;;;;;;21.65;5.15;;;;;;;;;;5092194;28;20012;-75
2023/09/23 12:18:54;;;;;;;23.85;5.28;;;;;;;;;;5092123;28;20216;-74
2023/09/23 12:21:20;;;;;;;26.38;4.88;;;;;;;;;;5091989;28;20051;-73
2023/09/23 12:23:46;;;;;;;26.13;4.35;;;;;;;;;;5073972;28;20127;-73
2023/09/23 12:26:12;;;;;;;20.73;4.70;;;;;;;;;;5091802;28;20024;-73
2023/09/23 12:28:38;;;;;;;24.60;5.32;;;;;;;;;;5092035;28;20042;-70
2023/09/23 12:31:04;;;;;;;21.45;5.25;;;;;;;;;;5089888;28;20031;-74
2023/09/23 12:33:30;;;;;;;13.60;4.00;;;;;;;;;;5091227;28;20405;-73
2023/09/23 12:35:56;;;;;;;31.17;5.65;;;;;;;;;;5091112;28;20103;-74
2023/09/23 12:38:22;;;;;;;22.85;5.18;;;;;;;;;;5091659;28;20060;-72
2023/09/23 12:40:47;;;;;;;19.08;4.88;;;;;;;;;;5090958;28;20056;-72
2023/09/23 12:43:15;;;;;;;23.33;4.88;;;;;;;;;;5091137;28;20024;-75
2023/09/23 12:45:44;;;;;;;17.52;5.78;;;;;;;;;;5089991;28;20051;-73
2023/09/23 12:48:10;;;;;;;24.83;6.97;;;;;;;;;;5091179;28;20118;-73
2023/09/23 12:50:36;;;;;;;26.30;6.15;;;;;;;;;;5091417;28;20115;-73
2023/09/23 12:53:02;;;;;;;21.48;5.15;;;;;;;;;;5091492;28;20077;-72
2023/09/23 12:55:28;;;;;;;22.70;5.80;;;;;;;;;;5091288;28;20560;-72
2023/09/23 12:57:55;;;;;;;23.77;5.65;;;;;;;;;;5091512;28;20118;-72
2023/09/23 13:00:21;;;;;;;23.88;7.00;;;;;;;;;;5091238;28;20050;-72
2023/09/23 13:02:48;;;;;;;24.02;5.40;;;;;;;;;;5089593;28;20036;-72
2023/09/23 13:05:17;;;;;;;28.75;5.30;;;;;;;;;;5091322;28;20024;-75
2023/09/23 13:07:44;;;;;;;24.35;5.50;;;;;;;;;;5091452;28;20024;-72
2023/09/23 13:10:11;;;;;;;24.92;4.53;;;;;;;;;;5090937;28;20477;-71
2023/09/23 13:12:38;;;;;;;31.63;5.75;;;;;;;;;;5090480;28;20370;-73
2023/09/23 13:15:06;;;;;;;20.70;4.85;;;;;;;;;;5092080;28;20012;-72
2023/09/23 13:17:31;;;;;;;30.02;5.38;;;;;;;;;;5087989;28;20306;-72
2023/09/23 13:19:58;;;;;;;21.90;4.97;;;;;;;;;;5091516;28;20031;-71
2023/09/23 13:22:24;;;;;;;30.45;5.43;;;;;;;;;;5091380;28;20032;-72
2023/09/23 13:24:51;;;;;;;19.80;4.55;;;;;;;;;;5091365;28;20108;-74
2023/09/23 13:27:21;;;;;;;31.27;4.80;;;;;;;;;;5091560;28;20066;-74
2023/09/23 13:29:47;;;;;;;27.40;5.45;;;;;;;;;;5091254;28;20038;-73
2023/09/23 13:32:12;;;;;;;22.92;5.10;;;;;;;;;;5090923;28;20111;-73
2023/09/23 13:34:38;;;;;;;18.92;5.20;;;;;;;;;;5090467;28;20020;-72
2023/09/23 13:37:04;;;;;;;21.02;5.35;;;;;;;;;;5091008;28;20381;-70
2023/09/23 13:39:30;;;;;;;17.05;4.88;;;;;;;;;;5091214;28;20020;-71
2023/09/23 13:41:56;;;;;;;26.45;5.93;;;;;;;;;;5090985;28;20039;-71
2023/09/23 13:44:25;;;;;;;19.40;4.65;;;;;;;;;;5091517;28;20096;-71
2023/09/23 13:46:51;;;;;;;19.85;4.40;;;;;;;;;;5091250;28;20097;-73
2023/09/23 13:49:17;;;;;;;26.73;5.53;;;;;;;;;;5090849;28;20016;-73
2023/09/23 13:51:43;;;;;;;23.05;5.05;;;;;;;;;;5091457;28;20097;-72
2023/09/23 13:54:09;;;;;;;23.75;4.50;;;;;;;;;;5090775;28;20386;-72
2023/09/23 13:56:35;;;;;;;23.38;3.83;;;;;;;;;;5091304;28;20032;-71
2023/09/23 13:59:01;;;;;;;25.67;4.80;;;;;;;;;;5090729;28;20028;-71
2023/09/23 14:01:28;;;;;;;26.05;4.63;;;;;;;;;;5090513;28;20118;-72
2023/09/23 14:03:54;;;;;;;20.48;3.70;;;;;;;;;;5089120;28;20036;-72
2023/09/23 14:06:20;;;;;;;20.52;4.07;;;;;;;;;;5090659;28;20070;-72
2023/09/23 14:08:46;;;;;;;18.90;4.25;;;;;;;;;;5088552;28;20019;-73
2023/09/23 14:11:12;;;;;;;26.05;4.95;;;;;;;;;;5090212;28;20038;-72
2023/09/23 14:13:38;;;;;;;14.32;3.35;;;;;;;;;;5088433;28;20032;-73
2023/09/23 14:16:04;;;;;;;30.70;4.43;;;;;;;;;;5092668;28;20047;-72
2023/09/23 14:18:29;;;;;;;18.83;3.78;;;;;;;;;;5094079;28;20386;-71
2023/09/23 14:20:55;;;;;;;25.27;4.72;;;;;;;;;;5093706;28;20043;-73
2023/09/23 14:23:21;;;;;;;26.85;4.13;;;;;;;;;;5093864;28;20032;-72
2023/09/23 14:25:48;;;;;;;22.88;5.10;;;;;;;;;;5093514;28;20040;-72
2023/09/23 14:28:14;;;;;;;21.85;4.35;;;;;;;;;;5093417;28;20374;-73
2023/09/23 14:30:40;;;;;;;21.13;4.85;;;;;;;;;;5093264;28;20121;-73